SCO74U EGPA-EGPB

Flight info

Callsign SCO74U
Flight time 0h 21m
Altitude 13000
Route KOKAL DCT WAFIL
Aircraft AT46/M-SDFGIRY/S

Departure

Time 2026-05-07 14:31
Airport Kirkwall Airport (EGPA)

Arrival

Time 2026-05-07 14:52
Airport Sumburgh Airport (EGPB)
Time Latitude Longitude Altitude Speed Heading
2026-05-07 14:15 58.95419 -2.90117 45 ft 0 kts 143°
2026-05-07 14:27 58.95421 -2.90090 43 ft 10 kts 65°
2026-05-07 14:27 58.95512 -2.90053 44 ft 18 kts 318°
2026-05-07 14:27 58.95626 -2.90241 45 ft 23 kts 319°
2026-05-07 14:28 58.95708 -2.90375 45 ft 6 kts 323°
2026-05-07 14:28 58.95711 -2.90380 45 ft 0 kts 323°
2026-05-07 14:29 58.95775 -2.90479 45 ft 19 kts 310°
2026-05-07 14:29 58.95788 -2.90646 44 ft 19 kts 268°
2026-05-07 14:29 58.95784 -2.90892 43 ft 18 kts 270°
2026-05-07 14:29 58.95787 -2.91117 44 ft 17 kts 282°
2026-05-07 14:30 58.95781 -2.91229 42 ft 3 kts 140°
2026-05-07 14:30 58.95777 -2.91193 43 ft 0 kts 86°
2026-05-07 14:30 58.95777 -2.91173 44 ft 15 kts 87°
2026-05-07 14:31 58.95792 -2.90436 45 ft 91 kts 86°
2026-05-07 14:31 58.95871 -2.88937 272 ft 121 kts 97°
2026-05-07 14:31 58.95930 -2.87263 957 ft 127 kts 93°
2026-05-07 14:31 58.96075 -2.85515 1645 ft 137 kts 89°
2026-05-07 14:32 58.96351 -2.83641 2085 ft 155 kts 73°
2026-05-07 14:32 58.96988 -2.81846 2520 ft 169 kts 52°
2026-05-07 14:32 58.98007 -2.80398 2778 ft 193 kts 26°
2026-05-07 14:32 58.99219 -2.79277 3231 ft 201 kts 27°
2026-05-07 14:33 59.00457 -2.77974 3765 ft 204 kts 32°
2026-05-07 14:33 59.01647 -2.76446 4305 ft 206 kts 39°
2026-05-07 14:33 59.02771 -2.74714 4865 ft 207 kts 42°
2026-05-07 14:33 59.03861 -2.72866 5440 ft 208 kts 44°
2026-05-07 14:34 59.04946 -2.70991 5990 ft 209 kts 43°
2026-05-07 14:34 59.06041 -2.69097 6530 ft 210 kts 43°
2026-05-07 14:34 59.07149 -2.67219 7016 ft 213 kts 42°
2026-05-07 14:34 59.08273 -2.65341 7543 ft 214 kts 42°
2026-05-07 14:35 59.09412 -2.63448 8057 ft 215 kts 41°
2026-05-07 14:35 59.10555 -2.61543 8553 ft 217 kts 41°
2026-05-07 14:35 59.11705 -2.59629 9046 ft 219 kts 41°
2026-05-07 14:35 59.12853 -2.57716 9544 ft 220 kts 40°
2026-05-07 14:36 59.14019 -2.55770 9989 ft 222 kts 41°
2026-05-07 14:36 59.15193 -2.53810 10410 ft 224 kts 40°
2026-05-07 14:36 59.16380 -2.51824 10825 ft 226 kts 40°
2026-05-07 14:36 59.17578 -2.49818 11227 ft 228 kts 40°
2026-05-07 14:37 59.18879 -2.48017 11617 ft 229 kts 27°
2026-05-07 14:37 59.21717 -2.45051 12377 ft 234 kts 25°
2026-05-07 14:37 59.23149 -2.43494 12716 ft 240 kts 27°
2026-05-07 14:38 59.24621 -2.41777 12872 ft 253 kts 29°
2026-05-07 14:38 59.26158 -2.39931 12942 ft 267 kts 29°
2026-05-07 14:38 59.27791 -2.37982 12976 ft 281 kts 29°
2026-05-07 14:38 59.29496 -2.35956 12991 ft 293 kts 29°
2026-05-07 14:39 59.31275 -2.33842 12993 ft 302 kts 29°
2026-05-07 14:39 59.33094 -2.31679 13007 ft 309 kts 29°
2026-05-07 14:39 59.34949 -2.29477 13002 ft 314 kts 29°
2026-05-07 14:39 59.36800 -2.27275 13003 ft 317 kts 29°
2026-05-07 14:40 59.38688 -2.25017 13004 ft 319 kts 30°
2026-05-07 14:40 59.40591 -2.22738 12999 ft 321 kts 30°
2026-05-07 14:40 59.42499 -2.20450 13006 ft 322 kts 30°
2026-05-07 14:40 59.44418 -2.18149 13008 ft 323 kts 30°
2026-05-07 14:41 59.46334 -2.15848 13000 ft 323 kts 30°
2026-05-07 14:41 59.48254 -2.13539 13011 ft 324 kts 30°
2026-05-07 14:41 59.50176 -2.11223 13006 ft 324 kts 30°
2026-05-07 14:41 59.52097 -2.08907 13013 ft 324 kts 30°
2026-05-07 14:42 59.54015 -2.06589 13013 ft 324 kts 30°
2026-05-07 14:42 59.55934 -2.04264 13013 ft 324 kts 30°
2026-05-07 14:42 59.57857 -2.01936 13013 ft 324 kts 30°
2026-05-07 14:42 59.59773 -1.99599 13019 ft 323 kts 31°
2026-05-07 14:43 59.61581 -1.96934 12819 ft 324 kts 38°
2026-05-07 14:43 59.63295 -1.94146 12444 ft 312 kts 39°
2026-05-07 14:43 59.64939 -1.91426 12046 ft 307 kts 39°
2026-05-07 14:43 59.66576 -1.88723 11574 ft 306 kts 39°
2026-05-07 14:44 59.68205 -1.86038 11119 ft 305 kts 39°
2026-05-07 14:44 59.69833 -1.83369 10664 ft 303 kts 39°
2026-05-07 14:44 59.71454 -1.80721 10219 ft 302 kts 39°
2026-05-07 14:44 59.73076 -1.78092 9770 ft 298 kts 39°
2026-05-07 14:45 59.74653 -1.75533 9222 ft 290 kts 40°
2026-05-07 14:45 59.76205 -1.73037 8687 ft 284 kts 40°
2026-05-07 14:45 59.77723 -1.70587 8151 ft 275 kts 44°
2026-05-07 14:45 59.78739 -1.67569 7643 ft 262 kts 73°
2026-05-07 14:46 59.79315 -1.64170 7130 ft 258 kts 78°
2026-05-07 14:46 59.79838 -1.60784 6625 ft 255 kts 79°
2026-05-07 14:46 59.80347 -1.57412 6121 ft 253 kts 79°
2026-05-07 14:46 59.80845 -1.54068 5586 ft 251 kts 79°
2026-05-07 14:47 59.81333 -1.50767 5070 ft 249 kts 79°
2026-05-07 14:47 59.81819 -1.47463 4543 ft 247 kts 79°
2026-05-07 14:47 59.82299 -1.44201 4019 ft 245 kts 80°
2026-05-07 14:47 59.82780 -1.40962 3513 ft 244 kts 80°
2026-05-07 14:48 59.83262 -1.37741 3024 ft 242 kts 80°
2026-05-07 14:48 59.83725 -1.34633 2784 ft 229 kts 84°
2026-05-07 14:48 59.83632 -1.31700 2554 ft 200 kts 123°
2026-05-07 14:48 59.82716 -1.29964 2306 ft 176 kts 164°
2026-05-07 14:49 59.81563 -1.30212 2086 ft 171 kts 209°
2026-05-07 14:49 59.80951 -1.32193 1970 ft 183 kts 254°
2026-05-07 14:49 59.81303 -1.34674 1895 ft 199 kts 300°
2026-05-07 14:49 59.82456 -1.36176 1841 ft 203 kts 342°
2026-05-07 14:50 59.83862 -1.36133 1640 ft 202 kts 17°
2026-05-07 14:50 59.85223 -1.35667 1492 ft 199 kts
2026-05-07 14:50 59.86562 -1.35483 1343 ft 191 kts
2026-05-07 14:50 59.87831 -1.35205 1124 ft 179 kts 12°
2026-05-07 14:51 59.88999 -1.34665 853 ft 166 kts 24°
2026-05-07 14:51 59.89716 -1.33424 790 ft 114 kts 88°
2026-05-07 14:51 59.89542 -1.32088 589 ft 98 kts 136°
2026-05-07 14:51 59.89022 -1.31231 378 ft 95 kts 151°
2026-05-07 14:52 59.88468 -1.30438 181 ft 104 kts 148°
2026-05-07 14:52 59.87910 -1.29624 30 ft 92 kts 149°
2026-05-07 14:52 59.87659 -1.29276 31 ft 12 kts 142°
2026-05-07 14:52 59.87589 -1.29115 29 ft 14 kts 81°
2026-05-07 14:53 59.87605 -1.28955 30 ft 8 kts 72°
2026-05-07 14:53 59.87642 -1.28943 30 ft 8 kts 316°
2026-05-07 14:53 59.87659 -1.28952 30 ft 1 kts 52°
2026-05-07 14:53 59.87658 -1.28946 30 ft 1 kts 99°
2026-05-07 14:54 59.87653 -1.28943 30 ft 0 kts 186°